sensor_id;sensor_type;location;lat;lon;timestamp;pressure;altitude;pressure_sealevel;temperature;humidity
72262;BME280;60173;52.112;8.648;2022-10-31T00:00:30;101054.38;;;12.29;93.31
72262;BME280;60173;52.112;8.648;2022-10-31T00:02:57;101056.34;;;12.24;93.56
72262;BME280;60173;52.112;8.648;2022-10-31T00:05:24;101064.03;;;12.21;93.88
72262;BME280;60173;52.112;8.648;2022-10-31T00:07:53;101071.16;;;12.17;93.91
72262;BME280;60173;52.112;8.648;2022-10-31T00:10:19;101071.84;;;12.09;94.09
72262;BME280;60173;52.112;8.648;2022-10-31T00:12:46;101073.50;;;12.05;94.36
72262;BME280;60173;52.112;8.648;2022-10-31T00:15:12;101074.41;;;12.01;94.78
72262;BME280;60173;52.112;8.648;2022-10-31T00:17:38;101077.41;;;11.99;94.95
72262;BME280;60173;52.112;8.648;2022-10-31T00:20:05;101080.41;;;11.97;95.12
72262;BME280;60173;52.112;8.648;2022-10-31T00:22:32;101084.00;;;11.93;94.93
72262;BME280;60173;52.112;8.648;2022-10-31T00:24:58;101070.47;;;11.88;94.85
72262;BME280;60173;52.112;8.648;2022-10-31T00:27:24;101079.22;;;11.80;94.73
72262;BME280;60173;52.112;8.648;2022-10-31T00:29:51;101084.81;;;11.69;95.11
72262;BME280;60173;52.112;8.648;2022-10-31T00:32:17;101085.97;;;11.63;95.51
72262;BME280;60173;52.112;8.648;2022-10-31T00:34:43;101090.94;;;11.56;95.63
72262;BME280;60173;52.112;8.648;2022-10-31T00:37:09;101086.69;;;11.45;95.86
72262;BME280;60173;52.112;8.648;2022-10-31T00:39:36;101091.91;;;11.41;96.12
72262;BME280;60173;52.112;8.648;2022-10-31T00:42:02;101098.22;;;11.37;96.23
72262;BME280;60173;52.112;8.648;2022-10-31T00:44:28;101090.94;;;11.32;96.24
72262;BME280;60173;52.112;8.648;2022-10-31T00:46:55;101088.81;;;11.24;96.45
72262;BME280;60173;52.112;8.648;2022-10-31T00:49:21;101091.59;;;11.19;96.61
72262;BME280;60173;52.112;8.648;2022-10-31T00:51:47;101095.13;;;11.19;96.43
72262;BME280;60173;52.112;8.648;2022-10-31T00:54:14;101097.56;;;11.21;96.40
72262;BME280;60173;52.112;8.648;2022-10-31T00:56:40;101090.44;;;11.25;96.89
72262;BME280;60173;52.112;8.648;2022-10-31T00:59:06;101090.69;;;11.28;96.97
72262;BME280;60173;52.112;8.648;2022-10-31T01:01:33;101092.59;;;11.28;96.89
72262;BME280;60173;52.112;8.648;2022-10-31T01:03:59;101088.56;;;11.25;96.84
72262;BME280;60173;52.112;8.648;2022-10-31T01:06:26;101092.34;;;11.24;96.66
72262;BME280;60173;52.112;8.648;2022-10-31T01:08:52;101101.66;;;11.18;96.68
72262;BME280;60173;52.112;8.648;2022-10-31T01:11:20;101109.53;;;11.20;96.56
72262;BME280;60173;52.112;8.648;2022-10-31T01:13:50;101098.16;;;11.13;96.41
72262;BME280;60173;52.112;8.648;2022-10-31T01:16:18;101101.75;;;11.08;96.77
72262;BME280;60173;52.112;8.648;2022-10-31T01:18:45;101099.59;;;11.05;96.68
72262;BME280;60173;52.112;8.648;2022-10-31T01:21:20;101106.47;;;10.97;96.42
72262;BME280;60173;52.112;8.648;2022-10-31T01:23:47;101111.94;;;10.92;96.63
72262;BME280;60173;52.112;8.648;2022-10-31T01:26:20;101111.16;;;10.86;96.71
72262;BME280;60173;52.112;8.648;2022-10-31T01:28:57;101116.94;;;10.80;96.63
72262;BME280;60173;52.112;8.648;2022-10-31T01:31:27;101121.59;;;10.74;96.67
72262;BME280;60173;52.112;8.648;2022-10-31T01:33:54;101117.50;;;10.77;96.74
72262;BME280;60173;52.112;8.648;2022-10-31T01:36:24;101113.78;;;10.68;96.83
72262;BME280;60173;52.112;8.648;2022-10-31T01:38:53;101110.44;;;10.76;96.81
72262;BME280;60173;52.112;8.648;2022-10-31T01:41:22;101113.34;;;10.84;96.26
72262;BME280;60173;52.112;8.648;2022-10-31T01:46:35;101114.00;;;10.71;96.70
72262;BME280;60173;52.112;8.648;2022-10-31T01:49:11;101113.97;;;10.76;96.97
72262;BME280;60173;52.112;8.648;2022-10-31T01:51:46;101113.91;;;10.81;96.92
72262;BME280;60173;52.112;8.648;2022-10-31T01:54:16;101111.31;;;10.66;96.64
72262;BME280;60173;52.112;8.648;2022-10-31T01:56:47;101108.63;;;10.61;97.35
72262;BME280;60173;52.112;8.648;2022-10-31T01:59:17;101099.13;;;10.63;97.35
72262;BME280;60173;52.112;8.648;2022-10-31T02:01:46;101106.44;;;10.63;97.15
72262;BME280;60173;52.112;8.648;2022-10-31T02:04:14;101097.78;;;10.61;97.09
72262;BME280;60173;52.112;8.648;2022-10-31T02:06:46;101092.06;;;10.62;97.04
72262;BME280;60173;52.112;8.648;2022-10-31T02:09:16;101101.50;;;10.70;96.78
72262;BME280;60173;52.112;8.648;2022-10-31T02:11:44;101099.81;;;10.79;96.38
72262;BME280;60173;52.112;8.648;2022-10-31T02:14:11;101098.66;;;10.91;95.73
72262;BME280;60173;52.112;8.648;2022-10-31T02:16:37;101100.06;;;10.83;95.70
72262;BME280;60173;52.112;8.648;2022-10-31T02:19:07;101107.81;;;10.66;96.16
72262;BME280;60173;52.112;8.648;2022-10-31T02:32:13;101113.16;;;10.26;97.08
72262;BME280;60173;52.112;8.648;2022-10-31T02:34:57;101113.47;;;10.19;97.05
72262;BME280;60173;52.112;8.648;2022-10-31T02:40:01;101109.09;;;10.29;97.41
72262;BME280;60173;52.112;8.648;2022-10-31T02:45:14;101113.16;;;10.26;97.34
72262;BME280;60173;52.112;8.648;2022-10-31T02:47:47;101108.78;;;10.35;97.00
72262;BME280;60173;52.112;8.648;2022-10-31T02:50:17;101109.31;;;10.37;96.90
72262;BME280;60173;52.112;8.648;2022-10-31T02:52:50;101103.66;;;10.34;96.82
72262;BME280;60173;52.112;8.648;2022-10-31T02:57:49;101111.25;;;10.32;97.13
72262;BME280;60173;52.112;8.648;2022-10-31T03:00:18;101120.75;;;10.34;97.01
72262;BME280;60173;52.112;8.648;2022-10-31T03:11:05;101137.00;;;10.45;97.15
72262;BME280;60173;52.112;8.648;2022-10-31T03:16:27;101140.22;;;10.47;96.99
72262;BME280;60173;52.112;8.648;2022-10-31T03:19:01;101142.44;;;10.45;97.31
72262;BME280;60173;52.112;8.648;2022-10-31T03:21:36;101149.72;;;10.49;97.61
72262;BME280;60173;52.112;8.648;2022-10-31T03:24:06;101141.78;;;10.58;97.59
72262;BME280;60173;52.112;8.648;2022-10-31T03:26:38;101154.78;;;10.66;97.48
72262;BME280;60173;52.112;8.648;2022-10-31T03:29:07;101145.50;;;10.72;97.39
72262;BME280;60173;52.112;8.648;2022-10-31T03:31:40;101143.31;;;10.74;97.22
72262;BME280;60173;52.112;8.648;2022-10-31T03:34:09;101146.38;;;10.68;97.12
72262;BME280;60173;52.112;8.648;2022-10-31T03:36:39;101140.09;;;10.67;97.52
72262;BME280;60173;52.112;8.648;2022-10-31T03:39:09;101134.94;;;10.71;97.47
72262;BME280;60173;52.112;8.648;2022-10-31T03:41:41;101127.06;;;10.69;97.29
72262;BME280;60173;52.112;8.648;2022-10-31T03:44:13;101129.78;;;10.69;97.75
72262;BME280;60173;52.112;8.648;2022-10-31T03:46:41;101127.13;;;10.59;97.76
72262;BME280;60173;52.112;8.648;2022-10-31T03:49:09;101123.06;;;10.56;98.73
72262;BME280;60173;52.112;8.648;2022-10-31T03:51:47;101128.78;;;10.55;98.96
72262;BME280;60173;52.112;8.648;2022-10-31T03:54:21;101136.34;;;10.63;98.19
72262;BME280;60173;52.112;8.648;2022-10-31T03:56:52;101122.75;;;10.63;97.39
72262;BME280;60173;52.112;8.648;2022-10-31T03:59:26;101124.28;;;10.35;97.54
72262;BME280;60173;52.112;8.648;2022-10-31T04:02:00;101121.88;;;10.28;98.29
72262;BME280;60173;52.112;8.648;2022-10-31T04:04:29;101120.16;;;10.43;98.47
72262;BME280;60173;52.112;8.648;2022-10-31T04:06:56;101137.00;;;10.45;98.05
72262;BME280;60173;52.112;8.648;2022-10-31T04:09:26;101137.00;;;10.45;97.64
72262;BME280;60173;52.112;8.648;2022-10-31T04:11:56;101137.56;;;10.42;97.26
72262;BME280;60173;52.112;8.648;2022-10-31T04:14:24;101140.88;;;10.28;97.00
72262;BME280;60173;52.112;8.648;2022-10-31T04:16:51;101140.94;;;10.13;96.96
72262;BME280;60173;52.112;8.648;2022-10-31T04:19:17;101137.97;;;10.04;97.11
72262;BME280;60173;52.112;8.648;2022-10-31T04:21:44;101139.06;;;10.03;97.61
72262;BME280;60173;52.112;8.648;2022-10-31T04:24:11;101137.69;;;10.01;97.90
72262;BME280;60173;52.112;8.648;2022-10-31T04:26:37;101130.94;;;9.98;98.06
72262;BME280;60173;52.112;8.648;2022-10-31T04:29:03;101139.91;;;9.99;98.02
72262;BME280;60173;52.112;8.648;2022-10-31T04:31:30;101140.19;;;9.92;97.94
72262;BME280;60173;52.112;8.648;2022-10-31T04:33:56;101141.00;;;9.92;97.93
72262;BME280;60173;52.112;8.648;2022-10-31T04:36:22;101144.78;;;9.96;97.87
72262;BME280;60173;52.112;8.648;2022-10-31T04:38:49;101143.44;;;9.89;97.99
72262;BME280;60173;52.112;8.648;2022-10-31T04:41:15;101137.19;;;9.93;98.11
72262;BME280;60173;52.112;8.648;2022-10-31T04:43:41;101138.25;;;9.98;98.34
72262;BME280;60173;52.112;8.648;2022-10-31T04:46:08;101139.91;;;9.93;98.34
72262;BME280;60173;52.112;8.648;2022-10-31T04:48:34;101142.63;;;9.93;98.38
72262;BME280;60173;52.112;8.648;2022-10-31T04:51:01;101142.06;;;9.96;98.26
72262;BME280;60173;52.112;8.648;2022-10-31T04:53:28;101146.44;;;9.92;97.89
72262;BME280;60173;52.112;8.648;2022-10-31T04:55:57;101139.13;;;9.83;98.02
72262;BME280;60173;52.112;8.648;2022-10-31T04:58:24;101136.97;;;9.80;98.39
72262;BME280;60173;52.112;8.648;2022-10-31T05:00:54;101131.84;;;9.78;98.31
72262;BME280;60173;52.112;8.648;2022-10-31T05:03:21;101128.00;;;9.84;98.34
72262;BME280;60173;52.112;8.648;2022-10-31T05:05:48;101130.72;;;9.79;98.20
72262;BME280;60173;52.112;8.648;2022-10-31T05:08:14;101125.06;;;9.76;98.33
72262;BME280;60173;52.112;8.648;2022-10-31T05:10:41;101124.81;;;9.72;98.35
72262;BME280;60173;52.112;8.648;2022-10-31T05:13:07;101120.19;;;9.62;98.17
72262;BME280;60173;52.112;8.648;2022-10-31T05:15:34;101114.25;;;9.55;98.58
72262;BME280;60173;52.112;8.648;2022-10-31T05:18:00;101119.69;;;9.55;98.52
72262;BME280;60173;52.112;8.648;2022-10-31T05:20:29;101121.84;;;9.53;98.55
72262;BME280;60173;52.112;8.648;2022-10-31T05:22:56;101123.75;;;9.47;98.42
72262;BME280;60173;52.112;8.648;2022-10-31T05:25:26;101120.00;;;9.38;98.48
72262;BME280;60173;52.112;8.648;2022-10-31T05:27:53;101127.56;;;9.31;98.77
72262;BME280;60173;52.112;8.648;2022-10-31T05:30:22;101117.81;;;9.30;99.16
72262;BME280;60173;52.112;8.648;2022-10-31T05:32:50;101114.00;;;9.31;99.41
72262;BME280;60173;52.112;8.648;2022-10-31T05:35:28;101113.22;;;9.36;99.71
72262;BME280;60173;52.112;8.648;2022-10-31T05:37:55;101111.56;;;9.40;99.65
72262;BME280;60173;52.112;8.648;2022-10-31T05:40:22;101112.41;;;9.40;99.92
72262;BME280;60173;52.112;8.648;2022-10-31T05:42:51;101105.06;;;9.46;100.00
72262;BME280;60173;52.112;8.648;2022-10-31T05:45:18;101116.72;;;9.41;99.97
72262;BME280;60173;52.112;8.648;2022-10-31T05:47:57;101127.03;;;9.34;99.75
72262;BME280;60173;52.112;8.648;2022-10-31T05:50:25;101115.91;;;9.36;99.62
72262;BME280;60173;52.112;8.648;2022-10-31T05:53:00;101128.41;;;9.26;99.42
72262;BME280;60173;52.112;8.648;2022-10-31T05:55:26;101113.22;;;9.15;99.63
72262;BME280;60173;52.112;8.648;2022-10-31T05:57:54;101116.19;;;9.39;99.12
72262;BME280;60173;52.112;8.648;2022-10-31T06:00:21;101119.97;;;9.43;99.07
72262;BME280;60173;52.112;8.648;2022-10-31T06:02:48;101119.94;;;9.48;98.42
72262;BME280;60173;52.112;8.648;2022-10-31T06:05:15;101119.94;;;9.48;98.48
72262;BME280;60173;52.112;8.648;2022-10-31T06:07:41;101121.59;;;9.55;98.55
72262;BME280;60173;52.112;8.648;2022-10-31T06:10:08;101136.50;;;9.47;98.73
72262;BME280;60173;52.112;8.648;2022-10-31T06:12:35;101126.47;;;9.42;99.14
72262;BME280;60173;52.112;8.648;2022-10-31T06:15:02;101141.13;;;9.36;98.83
72262;BME280;60173;52.112;8.648;2022-10-31T06:17:28;101135.44;;;9.27;98.91
72262;BME280;60173;52.112;8.648;2022-10-31T06:19:55;101138.69;;;9.30;98.97
72262;BME280;60173;52.112;8.648;2022-10-31T06:22:21;101132.47;;;9.24;98.75
72262;BME280;60173;52.112;8.648;2022-10-31T06:24:47;101140.56;;;9.39;98.63
72262;BME280;60173;52.112;8.648;2022-10-31T06:27:13;101141.66;;;9.43;98.95
72262;BME280;60173;52.112;8.648;2022-10-31T06:29:40;101148.72;;;9.39;98.89
72262;BME280;60173;52.112;8.648;2022-10-31T06:32:10;101151.97;;;9.41;98.87
72262;BME280;60173;52.112;8.648;2022-10-31T06:34:36;101147.09;;;9.33;98.80
72262;BME280;60173;52.112;8.648;2022-10-31T06:37:03;101144.38;;;9.38;99.12
72262;BME280;60173;52.112;8.648;2022-10-31T06:39:29;101134.59;;;9.53;99.08
72262;BME280;60173;52.112;8.648;2022-10-31T06:41:55;101131.63;;;9.44;98.42
72262;BME280;60173;52.112;8.648;2022-10-31T06:44:22;101144.94;;;9.35;98.14
72262;BME280;60173;52.112;8.648;2022-10-31T06:46:48;101148.72;;;9.49;97.86
72262;BME280;60173;52.112;8.648;2022-10-31T06:49:14;101160.09;;;9.46;98.87
72262;BME280;60173;52.112;8.648;2022-10-31T06:51:41;101149.22;;;9.57;98.39
72262;BME280;60173;52.112;8.648;2022-10-31T06:54:07;101151.94;;;9.62;98.32
72262;BME280;60173;52.112;8.648;2022-10-31T06:56:34;101159.53;;;9.65;98.20
72262;BME280;60173;52.112;8.648;2022-10-31T06:59:00;101161.13;;;9.76;98.25
72262;BME280;60173;52.112;8.648;2022-10-31T07:01:26;101152.44;;;9.84;97.92
72262;BME280;60173;52.112;8.648;2022-10-31T07:03:53;101167.06;;;9.88;97.83
72262;BME280;60173;52.112;8.648;2022-10-31T07:06:19;101175.19;;;9.93;97.60
72262;BME280;60173;52.112;8.648;2022-10-31T07:08:46;101165.31;;;10.18;96.77
72262;BME280;60173;52.112;8.648;2022-10-31T07:11:12;101168.63;;;10.10;96.74
72262;BME280;60173;52.112;8.648;2022-10-31T07:13:38;101173.22;;;10.09;96.77
72262;BME280;60173;52.112;8.648;2022-10-31T07:16:05;101168.81;;;10.24;96.75
72262;BME280;60173;52.112;8.648;2022-10-31T07:18:32;101175.88;;;10.35;96.50
72262;BME280;60173;52.112;8.648;2022-10-31T07:20:59;101164.16;;;10.45;96.17
72262;BME280;60173;52.112;8.648;2022-10-31T07:23:25;101169.59;;;10.45;95.87
72262;BME280;60173;52.112;8.648;2022-10-31T07:25:58;101167.91;;;10.54;95.78
72262;BME280;60173;52.112;8.648;2022-10-31T07:28:25;101175.75;;;10.55;95.76
72262;BME280;60173;52.112;8.648;2022-10-31T07:30:57;101163.22;;;10.65;95.83
72262;BME280;60173;52.112;8.648;2022-10-31T07:33:24;101158.28;;;10.72;95.46
72262;BME280;60173;52.112;8.648;2022-10-31T07:35:50;101160.41;;;10.80;95.05
72262;BME280;60173;52.112;8.648;2022-10-31T07:38:17;101155.22;;;10.83;94.88
72262;BME280;60173;52.112;8.648;2022-10-31T07:40:43;101163.81;;;10.96;94.78
72262;BME280;60173;52.112;8.648;2022-10-31T07:43:11;101161.22;;;11.15;94.68
72262;BME280;60173;52.112;8.648;2022-10-31T07:45:40;101154.00;;;11.34;93.55
72262;BME280;60173;52.112;8.648;2022-10-31T07:48:06;101155.03;;;11.67;92.85
72262;BME280;60173;52.112;8.648;2022-10-31T07:50:33;101163.84;;;11.83;91.32
72262;BME280;60173;52.112;8.648;2022-10-31T07:53:01;101160.28;;;11.88;90.54
72262;BME280;60173;52.112;8.648;2022-10-31T07:55:28;101163.34;;;12.05;90.76
72262;BME280;60173;52.112;8.648;2022-10-31T07:58:02;101151.91;;;12.27;90.36
72262;BME280;60173;52.112;8.648;2022-10-31T08:00:30;101160.91;;;12.47;89.77
72262;BME280;60173;52.112;8.648;2022-10-31T08:03:17;101160.50;;;12.58;89.85
72262;BME280;60173;52.112;8.648;2022-10-31T08:05:43;101167.19;;;12.85;89.53
72262;BME280;60173;52.112;8.648;2022-10-31T08:08:10;101166.94;;;13.00;89.00
72262;BME280;60173;52.112;8.648;2022-10-31T08:10:36;101160.22;;;13.11;88.78
72262;BME280;60173;52.112;8.648;2022-10-31T08:13:06;101159.75;;;13.23;88.26
72262;BME280;60173;52.112;8.648;2022-10-31T08:15:33;101161.63;;;13.28;88.01
72262;BME280;60173;52.112;8.648;2022-10-31T08:18:00;101158.78;;;13.33;87.81
72262;BME280;60173;52.112;8.648;2022-10-31T08:20:26;101158.03;;;13.46;87.80
72262;BME280;60173;52.112;8.648;2022-10-31T08:22:54;101151.97;;;13.49;87.43
72262;BME280;60173;52.112;8.648;2022-10-31T08:25:21;101156.03;;;13.66;87.78
72262;BME280;60173;52.112;8.648;2022-10-31T08:27:52;101163.94;;;13.81;86.79
72262;BME280;60173;52.112;8.648;2022-10-31T08:30:20;101156.13;;;13.88;86.27
72262;BME280;60173;52.112;8.648;2022-10-31T08:32:47;101159.88;;;13.92;86.25
72262;BME280;60173;52.112;8.648;2022-10-31T08:35:22;101165.53;;;13.82;86.33
72262;BME280;60173;52.112;8.648;2022-10-31T08:37:53;101153.41;;;13.74;85.97
72262;BME280;60173;52.112;8.648;2022-10-31T08:40:19;101157.47;;;13.77;85.83
72262;BME280;60173;52.112;8.648;2022-10-31T08:42:46;101151.16;;;13.76;85.48
72262;BME280;60173;52.112;8.648;2022-10-31T08:45:12;101147.75;;;13.57;85.14
72262;BME280;60173;52.112;8.648;2022-10-31T08:47:38;101146.31;;;13.46;86.19
72262;BME280;60173;52.112;8.648;2022-10-31T08:50:05;101146.53;;;13.63;86.00
72262;BME280;60173;52.112;8.648;2022-10-31T08:52:31;101137.53;;;13.63;84.82
72262;BME280;60173;52.112;8.648;2022-10-31T08:55:18;101141.25;;;13.53;85.69
72262;BME280;60173;52.112;8.648;2022-10-31T08:57:44;101139.84;;;13.23;86.36
72262;BME280;60173;52.112;8.648;2022-10-31T09:00:11;101137.63;;;13.25;87.10
72262;BME280;60173;52.112;8.648;2022-10-31T09:02:37;101133.97;;;13.48;86.50
72262;BME280;60173;52.112;8.648;2022-10-31T09:05:04;101128.00;;;13.46;86.68
72262;BME280;60173;52.112;8.648;2022-10-31T09:07:30;101131.03;;;13.31;87.37
72262;BME280;60173;52.112;8.648;2022-10-31T09:09:57;101119.38;;;13.39;87.56
72262;BME280;60173;52.112;8.648;2022-10-31T09:12:23;101125.19;;;13.65;87.23
72262;BME280;60173;52.112;8.648;2022-10-31T09:14:49;101117.00;;;13.79;86.40
72262;BME280;60173;52.112;8.648;2022-10-31T09:17:16;101114.19;;;13.84;85.97
72262;BME280;60173;52.112;8.648;2022-10-31T09:19:42;101106.06;;;13.65;86.13
72262;BME280;60173;52.112;8.648;2022-10-31T09:22:08;101114.28;;;13.79;86.32
72262;BME280;60173;52.112;8.648;2022-10-31T09:24:35;101112.75;;;13.73;86.22
72262;BME280;60173;52.112;8.648;2022-10-31T09:27:01;101106.50;;;13.72;87.17
72262;BME280;60173;52.112;8.648;2022-10-31T09:29:28;101109.53;;;13.98;86.64
72262;BME280;60173;52.112;8.648;2022-10-31T09:31:56;101108.09;;;14.15;85.71
72262;BME280;60173;52.112;8.648;2022-10-31T09:34:22;101112.34;;;14.07;85.54
72262;BME280;60173;52.112;8.648;2022-10-31T09:36:48;101105.47;;;14.10;86.13
72262;BME280;60173;52.112;8.648;2022-10-31T09:39:15;101097.38;;;14.05;85.57
72262;BME280;60173;52.112;8.648;2022-10-31T09:45:03;101099.50;;;14.08;86.58
72262;BME280;60173;52.112;8.648;2022-10-31T09:47:56;101107.69;;;14.08;86.30
72262;BME280;60173;52.112;8.648;2022-10-31T09:50:29;101102.50;;;14.20;86.14
72262;BME280;60173;52.112;8.648;2022-10-31T09:53:02;101104.34;;;14.11;86.38
72262;BME280;60173;52.112;8.648;2022-10-31T09:55:41;101103.41;;;14.29;85.96
72262;BME280;60173;52.112;8.648;2022-10-31T09:58:30;101107.09;;;14.47;85.69
72262;BME280;60173;52.112;8.648;2022-10-31T10:01:03;101105.78;;;14.58;85.82
72262;BME280;60173;52.112;8.648;2022-10-31T10:03:42;101106.94;;;14.66;85.70
72262;BME280;60173;52.112;8.648;2022-10-31T10:06:17;101113.28;;;14.75;85.66
72262;BME280;60173;52.112;8.648;2022-10-31T10:08:44;101113.84;;;14.63;85.92
72262;BME280;60173;52.112;8.648;2022-10-31T10:22:29;101106.38;;;15.23;83.73
72262;BME280;60173;52.112;8.648;2022-10-31T10:30:48;101092.56;;;15.28;83.47
72262;BME280;60173;52.112;8.648;2022-10-31T10:33:22;101086.34;;;15.45;83.15
72262;BME280;60173;52.112;8.648;2022-10-31T10:35:52;101089.50;;;15.60;82.75
72262;BME280;60173;52.112;8.648;2022-10-31T10:38:35;101094.59;;;15.85;82.34
72262;BME280;60173;52.112;8.648;2022-10-31T10:41:08;101096.72;;;16.05;81.87
72262;BME280;60173;52.112;8.648;2022-10-31T10:43:37;101097.06;;;16.12;80.42
72262;BME280;60173;52.112;8.648;2022-10-31T10:48:50;101087.41;;;16.15;78.83
72262;BME280;60173;52.112;8.648;2022-10-31T10:51:36;101070.63;;;16.16;78.89
72262;BME280;60173;52.112;8.648;2022-10-31T10:54:38;101071.78;;;16.24;78.57
72262;BME280;60173;52.112;8.648;2022-10-31T10:57:15;101072.59;;;16.33;77.83
72262;BME280;60173;52.112;8.648;2022-10-31T10:59:45;101063.06;;;16.48;78.53
72262;BME280;60173;52.112;8.648;2022-10-31T11:02:21;101061.31;;;16.69;76.66
72262;BME280;60173;52.112;8.648;2022-10-31T11:04:53;101060.31;;;16.83;75.90
72262;BME280;60173;52.112;8.648;2022-10-31T11:07:21;101054.53;;;16.84;75.76
72262;BME280;60173;52.112;8.648;2022-10-31T11:09:47;101054.19;;;16.86;75.95
72262;BME280;60173;52.112;8.648;2022-10-31T11:12:21;101046.44;;;16.88;75.42
72262;BME280;60173;52.112;8.648;2022-10-31T11:14:57;101038.53;;;16.86;73.79
72262;BME280;60173;52.112;8.648;2022-10-31T11:17:32;101029.94;;;17.05;72.95
72262;BME280;60173;52.112;8.648;2022-10-31T11:20:01;101020.84;;;17.52;72.51
72262;BME280;60173;52.112;8.648;2022-10-31T11:22:27;101019.91;;;17.48;71.84
72262;BME280;60173;52.112;8.648;2022-10-31T11:24:53;101019.84;;;17.27;70.94
72262;BME280;60173;52.112;8.648;2022-10-31T11:27:21;101025.28;;;16.97;72.25
72262;BME280;60173;52.112;8.648;2022-10-31T11:29:49;101012.19;;;17.41;72.64
72262;BME280;60173;52.112;8.648;2022-10-31T11:32:21;101013.16;;;17.45;72.48
72262;BME280;60173;52.112;8.648;2022-10-31T11:34:52;101013.22;;;17.57;70.94
72262;BME280;60173;52.112;8.648;2022-10-31T11:37:28;101016.34;;;17.47;70.53
72262;BME280;60173;52.112;8.648;2022-10-31T11:39:58;101006.38;;;17.43;71.43
72262;BME280;60173;52.112;8.648;2022-10-31T11:42:28;101014.94;;;17.41;71.64
72262;BME280;60173;52.112;8.648;2022-10-31T11:44:56;101012.97;;;17.50;72.12
72262;BME280;60173;52.112;8.648;2022-10-31T11:47:28;101006.59;;;17.58;71.11
72262;BME280;60173;52.112;8.648;2022-10-31T11:49:56;101009.34;;;17.58;71.61
72262;BME280;60173;52.112;8.648;2022-10-31T11:52:29;101000.91;;;17.63;71.91
72262;BME280;60173;52.112;8.648;2022-10-31T11:57:51;100992.59;;;17.22;72.13
72262;BME280;60173;52.112;8.648;2022-10-31T12:03:37;100990.72;;;17.05;73.58
72262;BME280;60173;52.112;8.648;2022-10-31T12:06:20;100985.56;;;16.94;72.83
72262;BME280;60173;52.112;8.648;2022-10-31T12:08:48;100975.13;;;16.88;73.69
72262;BME280;60173;52.112;8.648;2022-10-31T12:22:08;100956.31;;;17.07;72.77
72262;BME280;60173;52.112;8.648;2022-10-31T12:25:20;100957.66;;;17.01;72.55
72262;BME280;60173;52.112;8.648;2022-10-31T12:28:07;100950.88;;;16.99;72.15
72262;BME280;60173;52.112;8.648;2022-10-31T12:30:54;100950.66;;;17.04;73.05
72262;BME280;60173;52.112;8.648;2022-10-31T12:41:51;100908.88;;;17.57;70.11
72262;BME280;60173;52.112;8.648;2022-10-31T12:58:04;100889.09;;;17.43;71.21
72262;BME280;60173;52.112;8.648;2022-10-31T13:00:35;100888.38;;;17.34;71.63
72262;BME280;60173;52.112;8.648;2022-10-31T13:03:21;100885.13;;;17.32;71.01
72262;BME280;60173;52.112;8.648;2022-10-31T13:05:54;100869.69;;;17.27;70.81
72262;BME280;60173;52.112;8.648;2022-10-31T13:08:36;100864.81;;;17.33;71.06
72262;BME280;60173;52.112;8.648;2022-10-31T13:11:09;100854.41;;;17.38;71.47
72262;BME280;60173;52.112;8.648;2022-10-31T13:14:22;100848.03;;;17.47;70.81
72262;BME280;60173;52.112;8.648;2022-10-31T13:16:50;100848.19;;;17.50;70.82
72262;BME280;60173;52.112;8.648;2022-10-31T13:19:19;100840.84;;;17.42;71.74
72262;BME280;60173;52.112;8.648;2022-10-31T13:24:38;100845.31;;;17.26;71.54
72262;BME280;60173;52.112;8.648;2022-10-31T13:27:14;100843.22;;;17.44;70.85
72262;BME280;60173;52.112;8.648;2022-10-31T13:29:58;100837.34;;;17.33;70.99
72262;BME280;60173;52.112;8.648;2022-10-31T13:32:29;100827.09;;;17.63;71.37
72262;BME280;60173;52.112;8.648;2022-10-31T13:35:03;100826.34;;;17.54;70.89
72262;BME280;60173;52.112;8.648;2022-10-31T13:37:41;100823.16;;;17.31;70.82
72262;BME280;60173;52.112;8.648;2022-10-31T13:42:57;100811.69;;;17.71;70.19
72262;BME280;60173;52.112;8.648;2022-10-31T13:45:26;100814.00;;;17.81;70.00
72262;BME280;60173;52.112;8.648;2022-10-31T13:50:32;100796.41;;;17.82;69.91
72262;BME280;60173;52.112;8.648;2022-10-31T13:53:14;100795.19;;;17.71;70.21
72262;BME280;60173;52.112;8.648;2022-10-31T13:55:47;100792.34;;;18.00;69.96
72262;BME280;60173;52.112;8.648;2022-10-31T13:58:28;100789.09;;;17.98;69.95
72262;BME280;60173;52.112;8.648;2022-10-31T14:03:38;100782.78;;;17.86;70.50
72262;BME280;60173;52.112;8.648;2022-10-31T14:06:51;100778.56;;;17.88;70.48
72262;BME280;60173;52.112;8.648;2022-10-31T14:11:50;100776.38;;;17.60;71.79
72262;BME280;60173;52.112;8.648;2022-10-31T14:14:18;100770.38;;;17.46;72.15
72262;BME280;60173;52.112;8.648;2022-10-31T14:16:46;100763.41;;;17.49;72.11
72262;BME280;60173;52.112;8.648;2022-10-31T14:19:21;100765.81;;;17.50;72.46
72262;BME280;60173;52.112;8.648;2022-10-31T14:21:49;100768.28;;;17.43;73.15
72262;BME280;60173;52.112;8.648;2022-10-31T14:27:32;100761.81;;;17.27;73.41
72262;BME280;60173;52.112;8.648;2022-10-31T14:30:10;100753.56;;;17.27;73.61
72262;BME280;60173;52.112;8.648;2022-10-31T14:32:42;100743.63;;;17.01;74.39
72262;BME280;60173;52.112;8.648;2022-10-31T14:35:13;100740.00;;;17.30;74.08
72262;BME280;60173;52.112;8.648;2022-10-31T14:47:24;100719.47;;;16.65;77.64
72262;BME280;60173;52.112;8.648;2022-10-31T14:52:01;100712.09;;;16.57;78.40
72262;BME280;60173;52.112;8.648;2022-10-31T14:54:39;100713.38;;;16.59;78.55
72262;BME280;60173;52.112;8.648;2022-10-31T14:57:19;100711.44;;;16.60;78.63
72262;BME280;60173;52.112;8.648;2022-10-31T14:59:53;100711.31;;;16.56;78.87
72262;BME280;60173;52.112;8.648;2022-10-31T15:02:32;100709.69;;;16.55;78.61
72262;BME280;60173;52.112;8.648;2022-10-31T15:05:01;100697.50;;;16.44;79.71
72262;BME280;60173;52.112;8.648;2022-10-31T15:07:28;100693.50;;;16.62;79.11
72262;BME280;60173;52.112;8.648;2022-10-31T15:10:18;100698.91;;;16.50;79.47